Time;durP1;ratioP1;P1;durP2;ratioP2;P2;SDS_P1;SDS_P2;PMS_P1;PMS_P2;Temp;Humidity;BMP_temperature;BMP_pressure;BME280_temperature;BME280_humidity;BME280_pressure;Samples;Min_cycle;Max_cycle;Signal;HPM_P1;HPM_P2
2021/12/13 00:02:06;;;;;;;;;;;10.40;99.90;;;;;;5003317;28;19927;-44
2021/12/13 00:04:33;;;;;;;;;;;10.40;99.90;;;;;;5013976;28;19921;-46
2021/12/13 00:07:01;;;;;;;;;;;10.40;99.90;;;;;;5029868;28;19921;-44
2021/12/13 00:09:31;;;;;;;;;;;10.40;99.90;;;;;;5011348;28;19961;-48
2021/12/13 00:11:58;;;;;;;;;;;10.40;99.90;;;;;;5020040;28;19952;-46
2021/12/13 00:14:27;;;;;;;;;;;10.40;99.90;;;;;;5009488;28;20012;-46
2021/12/13 00:16:58;;;;;;;;;;;10.40;99.90;;;;;;5026957;28;19929;-44
2021/12/13 00:19:25;;;;;;;;;;;10.40;99.90;;;;;;5033737;28;19927;-47
2021/12/13 00:22:02;;;;;;;;;;;10.40;99.90;;;;;;5011134;28;20008;-46
2021/12/13 00:24:32;;;;;;;;;;;10.40;99.90;;;;;;5016811;28;19928;-43
2021/12/13 00:27:01;;;;;;;;;;;10.40;99.90;;;;;;5033454;28;19964;-44
2021/12/13 00:29:31;;;;;;;;;;;10.40;99.90;;;;;;5010422;28;20423;-45
2021/12/13 00:31:58;;;;;;;;;;;10.40;99.90;;;;;;5018546;28;20332;-45
2021/12/13 00:34:30;;;;;;;;;;;10.40;99.90;;;;;;5017706;28;19929;-47
2021/12/13 00:36:59;;;;;;;;;;;10.40;99.90;;;;;;5017084;28;19924;-44
2021/12/13 00:39:26;;;;;;;;;;;10.40;99.90;;;;;;5017264;28;19932;-44
2021/12/13 00:41:55;;;;;;;;;;;10.40;99.90;;;;;;5017063;28;20003;-46
2021/12/13 00:44:23;;;;;;;;;;;10.40;99.90;;;;;;5034703;28;20468;-45
2021/12/13 00:46:50;;;;;;;;;;;10.40;99.90;;;;;;5032704;28;19975;-45
2021/12/13 00:49:17;;;;;;;;;;;10.40;99.90;;;;;;5017923;28;19928;-47
2021/12/13 00:51:45;;;;;;;;;;;10.40;99.90;;;;;;5032326;28;20336;-47
2021/12/13 00:54:12;;;;;;;;;;;10.40;99.90;;;;;;5008817;28;20300;-43
2021/12/13 00:56:43;;;;;;;;;;;10.40;99.90;;;;;;5011091;28;19921;-43
2021/12/13 00:59:13;;;;;;;;;;;10.40;99.90;;;;;;5013306;28;19921;-44
2021/12/13 01:01:40;;;;;;;;;;;10.40;99.90;;;;;;5027049;28;19951;-45
2021/12/13 01:04:07;;;;;;;;;;;10.40;99.90;;;;;;5009917;28;19928;-44
2021/12/13 01:06:58;;;;;;;;;;;10.40;99.90;;;;;;5028706;28;19921;-44
2021/12/13 01:09:44;;;;;;;;;;;10.40;99.90;;;;;;5016556;28;20439;-47
2021/12/13 01:12:12;;;;;;;;;;;10.40;99.90;;;;;;5026513;28;20408;-45
2021/12/13 01:14:52;;;;;;;;;;;10.50;99.90;;;;;;5029217;28;20281;-47
2021/12/13 01:17:25;;;;;;;;;;;10.40;99.90;;;;;;5017454;28;19928;-47
2021/12/13 01:19:56;;;;;;;;;;;10.40;99.90;;;;;;5032103;28;19921;-47
2021/12/13 01:25:23;;;;;;;;;;;10.40;99.90;;;;;;4986602;28;20370;-44
2021/12/13 01:27:53;;;;;;;;;;;10.40;99.90;;;;;;5010251;28;19928;-43
2021/12/13 01:30:23;;;;;;;;;;;10.40;99.90;;;;;;5016528;28;20020;-43
2021/12/13 01:32:51;;;;;;;;;;;10.40;99.90;;;;;;5026767;28;20284;-46
2021/12/13 01:35:22;;;;;;;;;;;10.40;99.90;;;;;;5003258;28;19973;-44
2021/12/13 01:37:52;;;;;;;;;;;10.40;99.90;;;;;;5015750;28;19921;-44
2021/12/13 01:40:19;;;;;;;;;;;10.50;99.90;;;;;;5032129;28;20431;-43
2021/12/13 01:42:46;;;;;;;;;;;10.40;99.90;;;;;;5015381;28;19975;-44
2021/12/13 01:45:14;;;;;;;;;;;10.40;99.90;;;;;;5032121;28;19921;-44
2021/12/13 01:47:42;;;;;;;;;;;10.50;99.90;;;;;;5033140;28;20344;-44
2021/12/13 01:50:11;;;;;;;;;;;10.40;99.90;;;;;;5030917;28;19956;-44
2021/12/13 01:52:38;;;;;;;;;;;10.40;99.90;;;;;;5033416;28;19921;-47
2021/12/13 01:55:06;;;;;;;;;;;10.50;99.90;;;;;;5024254;28;19929;-47
2021/12/13 01:57:41;;;;;;;;;;;10.50;99.90;;;;;;5006154;28;19943;-45
2021/12/13 02:00:09;;;;;;;;;;;10.40;99.90;;;;;;5014810;28;19971;-45
2021/12/13 02:02:36;;;;;;;;;;;10.40;99.90;;;;;;5031765;28;20420;-46
2021/12/13 02:05:06;;;;;;;;;;;10.40;99.90;;;;;;5008064;28;19979;-48
2021/12/13 02:07:38;;;;;;;;;;;10.40;99.90;;;;;;5033599;28;19971;-46
2021/12/13 02:10:05;;;;;;;;;;;10.40;99.90;;;;;;5029688;28;19980;-46
2021/12/13 02:12:32;;;;;;;;;;;10.40;99.90;;;;;;5016177;28;19928;-47
2021/12/13 02:17:44;;;;;;;;;;;10.50;99.90;;;;;;5032028;28;19921;-47
2021/12/13 02:20:14;;;;;;;;;;;10.50;99.90;;;;;;5011882;28;20019;-44
2021/12/13 02:22:42;;;;;;;;;;;10.40;99.90;;;;;;5026811;28;19921;-48
2021/12/13 02:25:14;;;;;;;;;;;10.50;99.90;;;;;;5009720;28;19929;-46
2021/12/13 02:27:41;;;;;;;;;;;10.40;99.90;;;;;;5030930;28;19975;-46
2021/12/13 02:30:11;;;;;;;;;;;10.40;99.90;;;;;;5013900;28;20015;-46
2021/12/13 02:32:39;;;;;;;;;;;10.40;99.90;;;;;;5015216;28;20028;-47
2021/12/13 02:35:07;;;;;;;;;;;10.40;99.90;;;;;;5015890;28;19979;-45
2021/12/13 02:37:33;;;;;;;;;;;10.40;99.90;;;;;;5014761;28;19921;-47
2021/12/13 02:40:02;;;;;;;;;;;10.40;99.90;;;;;;5015812;28;19976;-47
2021/12/13 02:42:28;;;;;;;;;;;10.40;99.90;;;;;;5033347;28;19948;-47
2021/12/13 02:44:57;;;;;;;;;;;10.40;99.90;;;;;;5014586;28;20008;-46
2021/12/13 02:47:26;;;;;;;;;;;10.40;99.90;;;;;;5013807;28;20259;-45
2021/12/13 02:49:52;;;;;;;;;;;10.40;99.90;;;;;;5006578;28;20400;-45
2021/12/13 02:52:20;;;;;;;;;;;10.40;99.90;;;;;;5005908;28;19920;-46
2021/12/13 02:54:47;;;;;;;;;;;10.40;99.90;;;;;;5014799;28;19968;-48
2021/12/13 02:57:16;;;;;;;;;;;10.40;99.90;;;;;;5009376;28;19921;-45
2021/12/13 02:59:44;;;;;;;;;;;10.40;99.90;;;;;;5007667;28;19967;-45
2021/12/13 03:02:12;;;;;;;;;;;10.30;99.90;;;;;;5008829;28;19976;-45
2021/12/13 03:04:39;;;;;;;;;;;10.30;99.90;;;;;;5025572;28;19921;-46
2021/12/13 03:07:07;;;;;;;;;;;10.30;99.90;;;;;;5014071;28;19965;-45
2021/12/13 03:09:34;;;;;;;;;;;10.30;99.90;;;;;;5010800;28;19948;-46
2021/12/13 03:12:01;;;;;;;;;;;10.30;99.90;;;;;;5026841;28;19944;-48
2021/12/13 03:14:29;;;;;;;;;;;10.30;99.90;;;;;;5028131;28;19921;-45
2021/12/13 03:16:58;;;;;;;;;;;10.30;99.90;;;;;;5021832;28;20104;-44
2021/12/13 03:19:30;;;;;;;;;;;10.30;99.90;;;;;;5028741;28;20339;-47
2021/12/13 03:22:22;;;;;;;;;;;10.30;99.90;;;;;;5010127;28;19928;-46
2021/12/13 03:24:51;;;;;;;;;;;10.30;99.90;;;;;;5029952;28;19921;-44
2021/12/13 03:27:24;;;;;;;;;;;10.30;99.90;;;;;;5014696;28;19929;-47
2021/12/13 03:29:57;;;;;;;;;;;10.20;99.90;;;;;;5028279;28;19943;-45
2021/12/13 03:32:24;;;;;;;;;;;10.20;99.90;;;;;;5010924;28;19979;-45
2021/12/13 03:34:56;;;;;;;;;;;10.20;99.90;;;;;;5032775;28;19921;-45
2021/12/13 03:37:23;;;;;;;;;;;10.20;99.90;;;;;;5011798;28;20010;-45
2021/12/13 03:39:50;;;;;;;;;;;10.20;99.90;;;;;;5023138;28;19968;-47
2021/12/13 03:42:17;;;;;;;;;;;10.20;99.90;;;;;;5031263;28;19925;-46
2021/12/13 03:44:46;;;;;;;;;;;10.10;99.90;;;;;;5025041;28;20451;-48
2021/12/13 03:47:16;;;;;;;;;;;10.10;99.90;;;;;;5015154;28;19979;-45
2021/12/13 03:49:44;;;;;;;;;;;10.10;99.90;;;;;;5014844;28;19967;-49
2021/12/13 03:52:11;;;;;;;;;;;10.10;99.90;;;;;;5008729;28;19960;-43
2021/12/13 03:54:38;;;;;;;;;;;10.00;99.90;;;;;;5023206;28;20027;-44
2021/12/13 03:57:05;;;;;;;;;;;10.00;99.90;;;;;;5024829;28;20329;-48
2021/12/13 03:59:34;;;;;;;;;;;10.00;99.90;;;;;;5031064;28;19967;-47
2021/12/13 04:02:02;;;;;;;;;;;9.90;99.90;;;;;;5014365;28;19920;-46
2021/12/13 04:04:31;;;;;;;;;;;9.90;99.90;;;;;;5027396;28;20270;-48
2021/12/13 04:06:58;;;;;;;;;;;9.90;99.90;;;;;;5009772;28;19996;-46
2021/12/13 04:09:26;;;;;;;;;;;9.90;99.90;;;;;;5027710;28;20392;-46
2021/12/13 04:11:55;;;;;;;;;;;9.90;99.90;;;;;;5010763;28;20325;-48
2021/12/13 04:14:26;;;;;;;;;;;9.90;99.90;;;;;;5028258;28;19928;-47
2021/12/13 04:17:05;;;;;;;;;;;9.80;99.90;;;;;;5011164;28;19921;-46
2021/12/13 04:19:37;;;;;;;;;;;9.80;99.90;;;;;;5005448;28;20373;-45
2021/12/13 04:22:04;;;;;;;;;;;9.80;99.90;;;;;;5027937;28;20349;-48
2021/12/13 04:24:32;;;;;;;;;;;9.80;99.90;;;;;;5021017;28;19957;-47
2021/12/13 04:26:59;;;;;;;;;;;9.80;99.90;;;;;;5031726;28;19921;-45
2021/12/13 04:29:27;;;;;;;;;;;9.80;99.90;;;;;;5023638;28;19921;-46
2021/12/13 04:31:54;;;;;;;;;;;9.70;99.90;;;;;;5004776;28;19921;-44
2021/12/13 04:34:21;;;;;;;;;;;9.70;99.90;;;;;;5026961;28;20289;-44
2021/12/13 04:36:50;;;;;;;;;;;9.70;99.90;;;;;;5014427;28;20353;-47
2021/12/13 04:39:18;;;;;;;;;;;9.70;99.90;;;;;;5010864;28;19979;-44
2021/12/13 04:41:46;;;;;;;;;;;9.70;99.90;;;;;;5013126;28;19927;-45
2021/12/13 04:44:13;;;;;;;;;;;9.60;99.90;;;;;;5028402;28;19921;-46
2021/12/13 04:46:40;;;;;;;;;;;9.60;99.90;;;;;;5023436;28;19963;-44
2021/12/13 04:49:08;;;;;;;;;;;9.60;99.90;;;;;;5001784;28;19925;-43
2021/12/13 04:51:38;;;;;;;;;;;9.60;99.90;;;;;;5022752;28;20351;-47
2021/12/13 04:54:06;;;;;;;;;;;9.60;99.90;;;;;;5008287;28;19921;-45
2021/12/13 04:56:33;;;;;;;;;;;9.60;99.90;;;;;;5025705;28;19927;-48
2021/12/13 04:59:00;;;;;;;;;;;9.60;99.90;;;;;;5013759;28;20300;-44
2021/12/13 05:01:27;;;;;;;;;;;9.60;99.90;;;;;;5029920;28;20382;-47
2021/12/13 05:03:54;;;;;;;;;;;9.60;99.90;;;;;;5029349;28;19920;-45
2021/12/13 05:06:22;;;;;;;;;;;9.60;99.90;;;;;;5026975;28;19975;-45
2021/12/13 05:08:49;;;;;;;;;;;9.60;99.90;;;;;;5023435;28;20345;-43
2021/12/13 05:11:18;;;;;;;;;;;9.60;99.90;;;;;;5015691;28;19943;-45
2021/12/13 05:13:46;;;;;;;;;;;9.60;99.90;;;;;;5034329;28;19927;-45
2021/12/13 05:16:13;;;;;;;;;;;9.60;99.90;;;;;;5014359;28;19921;-44
2021/12/13 05:18:40;;;;;;;;;;;9.60;99.90;;;;;;5034295;28;20393;-44
2021/12/13 05:21:09;;;;;;;;;;;9.60;99.90;;;;;;5032378;28;19967;-43
2021/12/13 05:23:39;;;;;;;;;;;9.60;99.90;;;;;;5015542;28;19924;-46
2021/12/13 05:26:06;;;;;;;;;;;9.60;99.90;;;;;;5030424;28;19959;-46
2021/12/13 05:28:39;;;;;;;;;;;9.60;99.90;;;;;;5033308;28;19928;-46
2021/12/13 05:31:08;;;;;;;;;;;9.60;99.90;;;;;;5024159;28;19964;-43
2021/12/13 05:33:36;;;;;;;;;;;9.60;99.90;;;;;;5008126;28;19921;-46
2021/12/13 05:36:04;;;;;;;;;;;9.50;99.90;;;;;;5009867;28;19936;-44
2021/12/13 05:38:31;;;;;;;;;;;9.60;99.90;;;;;;5025583;28;20010;-43
2021/12/13 05:40:58;;;;;;;;;;;9.60;99.90;;;;;;5031504;28;20023;-45
2021/12/13 05:43:26;;;;;;;;;;;9.60;99.90;;;;;;5031161;28;19928;-45
2021/12/13 05:45:56;;;;;;;;;;;9.60;99.90;;;;;;5028880;28;19975;-46
2021/12/13 05:48:23;;;;;;;;;;;9.60;99.90;;;;;;5031693;28;20324;-44
2021/12/13 05:50:51;;;;;;;;;;;9.60;99.90;;;;;;5007050;28;19921;-44
2021/12/13 05:53:18;;;;;;;;;;;9.60;99.90;;;;;;5033749;28;20347;-45
2021/12/13 05:55:46;;;;;;;;;;;9.50;99.90;;;;;;5034666;28;19964;-45
2021/12/13 05:58:13;;;;;;;;;;;9.60;99.90;;;;;;5025828;28;20376;-44
2021/12/13 06:00:41;;;;;;;;;;;9.60;99.90;;;;;;5012697;28;20321;-46
2021/12/13 06:03:09;;;;;;;;;;;9.60;99.90;;;;;;5023599;28;19925;-46
2021/12/13 06:05:37;;;;;;;;;;;9.50;99.90;;;;;;5013496;28;19927;-45
2021/12/13 06:08:05;;;;;;;;;;;9.50;99.90;;;;;;5008695;28;20370;-45
2021/12/13 06:10:37;;;;;;;;;;;9.50;99.90;;;;;;5028353;28;19933;-45
2021/12/13 06:13:08;;;;;;;;;;;9.50;99.90;;;;;;5008131;28;19968;-44
2021/12/13 06:15:36;;;;;;;;;;;9.50;99.90;;;;;;5009863;28;19928;-44
2021/12/13 06:18:11;;;;;;;;;;;9.50;99.90;;;;;;5006140;28;19937;-44
2021/12/13 06:20:39;;;;;;;;;;;9.50;99.90;;;;;;5024631;28;19949;-46
2021/12/13 06:23:07;;;;;;;;;;;9.50;99.90;;;;;;4999033;28;20774;-44
2021/12/13 06:25:34;;;;;;;;;;;9.50;99.90;;;;;;4993149;28;20159;-47
2021/12/13 06:28:01;;;;;;;;;;;9.50;99.90;;;;;;4956632;28;19929;-43
2021/12/13 06:30:28;;;;;;;;;;;9.50;99.90;;;;;;4967477;28;20509;-45
2021/12/13 06:32:57;;;;;;;;;;;9.50;99.90;;;;;;4957790;28;20326;-46
2021/12/13 06:35:39;;;;;;;;;;;9.50;99.90;;;;;;5003628;28;19921;-48
2021/12/13 06:38:25;;;;;;;;;;;9.50;99.90;;;;;;5031204;28;19979;-46
2021/12/13 06:40:52;;;;;;;;;;;9.50;99.90;;;;;;5020260;28;19921;-44
2021/12/13 06:43:25;;;;;;;;;;;9.50;99.90;;;;;;5015063;28;19928;-46
2021/12/13 06:45:52;;;;;;;;;;;9.50;99.90;;;;;;5007081;28;20406;-45
2021/12/13 06:48:18;;;;;;;;;;;9.50;99.90;;;;;;4982536;28;20192;-48
2021/12/13 06:50:46;;;;;;;;;;;9.50;99.90;;;;;;5006107;28;20067;-47
2021/12/13 06:53:14;;;;;;;;;;;9.50;99.90;;;;;;5027889;28;19960;-44
2021/12/13 06:55:41;;;;;;;;;;;9.50;99.90;;;;;;5012048;28;19925;-44
2021/12/13 06:58:15;;;;;;;;;;;9.50;99.90;;;;;;5007014;28;20328;-46
2021/12/13 07:00:42;;;;;;;;;;;9.50;99.90;;;;;;5029213;28;19972;-45
2021/12/13 07:03:09;;;;;;;;;;;9.50;99.90;;;;;;5024333;28;20388;-47
2021/12/13 07:05:36;;;;;;;;;;;9.50;99.90;;;;;;4977252;28;20835;-44
2021/12/13 07:08:05;;;;;;;;;;;9.40;99.90;;;;;;4994577;28;20885;-44
2021/12/13 07:10:32;;;;;;;;;;;9.50;99.90;;;;;;4997575;28;20860;-45
2021/12/13 07:13:01;;;;;;;;;;;9.50;99.90;;;;;;4931573;28;19933;-44
2021/12/13 07:15:28;;;;;;;;;;;9.50;99.90;;;;;;4938691;28;21589;-43
2021/12/13 07:18:02;;;;;;;;;;;9.50;99.90;;;;;;4949252;28;20498;-44
2021/12/13 07:20:29;;;;;;;;;;;9.50;99.90;;;;;;4967803;28;20846;-45
2021/12/13 07:22:56;;;;;;;;;;;9.40;99.90;;;;;;4997351;28;19935;-47
2021/12/13 07:25:24;;;;;;;;;;;9.40;99.90;;;;;;4915775;28;19929;-42
2021/12/13 07:27:52;;;;;;;;;;;9.40;99.90;;;;;;5019156;28;20028;-44
2021/12/13 07:30:21;;;;;;;;;;;9.40;99.90;;;;;;5005134;28;19935;-46
2021/12/13 07:32:48;;;;;;;;;;;9.40;99.90;;;;;;4975405;28;19932;-43
2021/12/13 07:35:16;;;;;;;;;;;9.40;99.90;;;;;;4945667;28;19933;-46
2021/12/13 07:37:47;;;;;;;;;;;9.50;99.90;;;;;;5000344;28;19925;-46
2021/12/13 07:40:19;;;;;;;;;;;9.40;99.90;;;;;;5022677;28;20389;-45
2021/12/13 07:42:51;;;;;;;;;;;9.40;99.90;;;;;;5000478;28;19991;-46
2021/12/13 07:45:22;;;;;;;;;;;9.40;99.90;;;;;;5024392;28;19921;-44
2021/12/13 07:47:54;;;;;;;;;;;9.50;99.90;;;;;;5027357;28;19924;-44
2021/12/13 07:50:21;;;;;;;;;;;9.50;99.90;;;;;;5029843;28;19927;-44
2021/12/13 07:52:48;;;;;;;;;;;9.50;99.90;;;;;;5013288;28;19925;-46
2021/12/13 07:55:19;;;;;;;;;;;9.50;99.90;;;;;;5022198;28;20361;-46
2021/12/13 07:57:46;;;;;;;;;;;9.50;99.90;;;;;;5007392;28;19994;-47
2021/12/13 08:00:15;;;;;;;;;;;9.50;99.90;;;;;;5004479;28;19929;-43
2021/12/13 08:02:43;;;;;;;;;;;9.50;99.90;;;;;;5027377;28;19929;-45
2021/12/13 08:05:12;;;;;;;;;;;9.50;99.90;;;;;;5027817;28;20004;-45
2021/12/13 08:07:41;;;;;;;;;;;9.50;99.90;;;;;;5025703;28;19929;-43
2021/12/13 08:10:09;;;;;;;;;;;9.50;99.90;;;;;;5007645;28;19936;-44
2021/12/13 08:12:36;;;;;;;;;;;9.50;99.90;;;;;;5024090;28;20280;-44
2021/12/13 08:15:11;;;;;;;;;;;9.50;99.90;;;;;;5004081;28;19928;-45
2021/12/13 08:17:42;;;;;;;;;;;9.50;99.90;;;;;;4962101;28;19933;-44
2021/12/13 08:20:09;;;;;;;;;;;9.50;99.90;;;;;;5022189;28;19968;-43
2021/12/13 08:22:36;;;;;;;;;;;9.50;99.90;;;;;;5011749;28;19925;-45
2021/12/13 08:25:04;;;;;;;;;;;9.50;99.90;;;;;;5010876;28;19929;-46
2021/12/13 08:27:32;;;;;;;;;;;9.50;99.90;;;;;;5010946;28;20027;-45
2021/12/13 08:30:07;;;;;;;;;;;9.50;99.90;;;;;;5006795;28;19929;-44
2021/12/13 08:32:34;;;;;;;;;;;9.50;99.90;;;;;;5028975;28;19920;-44
2021/12/13 08:38:11;;;;;;;;;;;9.50;99.90;;;;;;5027063;28;19921;-44
2021/12/13 08:40:38;;;;;;;;;;;9.50;99.90;;;;;;5026569;28;19922;-44
2021/12/13 08:43:05;;;;;;;;;;;9.50;99.90;;;;;;5013398;28;20455;-45
2021/12/13 08:45:34;;;;;;;;;;;9.50;99.90;;;;;;5014306;28;19921;-44
2021/12/13 08:48:02;;;;;;;;;;;9.40;99.90;;;;;;5030958;28;19921;-45
2021/12/13 08:50:30;;;;;;;;;;;9.50;99.90;;;;;;5022284;28;20428;-45
2021/12/13 08:52:58;;;;;;;;;;;9.50;99.90;;;;;;5013043;28;20266;-49
2021/12/13 08:55:28;;;;;;;;;;;9.50;99.90;;;;;;5007794;28;19976;-47
2021/12/13 08:57:56;;;;;;;;;;;9.50;99.90;;;;;;5010894;28;19921;-47
2021/12/13 09:00:38;;;;;;;;;;;9.50;99.90;;;;;;5025278;28;19922;-45
2021/12/13 09:03:22;;;;;;;;;;;9.50;99.90;;;;;;5006702;28;19921;-47
2021/12/13 09:05:56;;;;;;;;;;;9.50;99.90;;;;;;5027630;28;19979;-45
2021/12/13 09:08:25;;;;;;;;;;;9.50;99.90;;;;;;5009603;28;19928;-45
2021/12/13 09:10:53;;;;;;;;;;;9.50;99.90;;;;;;5007668;28;20332;-47
2021/12/13 09:13:36;;;;;;;;;;;9.50;99.90;;;;;;5012982;28;19957;-48
2021/12/13 09:16:03;;;;;;;;;;;9.50;99.90;;;;;;5010542;28;19926;-46
2021/12/13 09:18:29;;;;;;;;;;;9.50;99.90;;;;;;5012964;28;20008;-46
2021/12/13 09:20:56;;;;;;;;;;;9.50;99.90;;;;;;5011664;28;19928;-47
2021/12/13 09:23:24;;;;;;;;;;;9.50;99.90;;;;;;5008847;28;19975;-45
2021/12/13 09:25:52;;;;;;;;;;;9.50;99.90;;;;;;5010511;28;20008;-45
2021/12/13 09:28:20;;;;;;;;;;;9.50;99.90;;;;;;5013716;28;19921;-45
2021/12/13 09:30:47;;;;;;;;;;;9.60;99.90;;;;;;5009844;28;19953;-46
2021/12/13 09:33:16;;;;;;;;;;;9.60;99.90;;;;;;5008910;28;19975;-45
2021/12/13 09:35:45;;;;;;;;;;;9.60;99.90;;;;;;5005262;28;19969;-44
2021/12/13 09:38:22;;;;;;;;;;;9.60;99.90;;;;;;5013363;28;20015;-45
2021/12/13 09:40:50;;;;;;;;;;;9.60;99.90;;;;;;5011182;28;19922;-46
2021/12/13 09:43:18;;;;;;;;;;;9.60;99.90;;;;;;5008983;28;20351;-45
2021/12/13 09:45:47;;;;;;;;;;;9.70;99.90;;;;;;5011006;28;19983;-44
2021/12/13 09:48:15;;;;;;;;;;;9.70;99.90;;;;;;5013498;28;19922;-45
2021/12/13 09:50:42;;;;;;;;;;;9.70;99.90;;;;;;5010204;28;19921;-44
2021/12/13 09:53:11;;;;;;;;;;;9.70;99.90;;;;;;5006805;28;19921;-47
2021/12/13 09:55:39;;;;;;;;;;;9.70;99.90;;;;;;5012975;28;19944;-49
2021/12/13 09:58:06;;;;;;;;;;;9.70;99.90;;;;;;5006909;28;20390;-44
2021/12/13 10:00:35;;;;;;;;;;;9.70;99.90;;;;;;5008425;28;20015;-47
2021/12/13 10:03:04;;;;;;;;;;;9.80;99.90;;;;;;4990487;28;19925;-45
2021/12/13 10:05:33;;;;;;;;;;;9.80;99.90;;;;;;5007574;28;19976;-47
2021/12/13 10:08:01;;;;;;;;;;;9.80;99.90;;;;;;4986689;28;19925;-42
2021/12/13 10:10:29;;;;;;;;;;;9.80;99.90;;;;;;4995231;28;20012;-44
2021/12/13 10:12:58;;;;;;;;;;;9.80;99.90;;;;;;5009098;28;20428;-44
2021/12/13 10:15:26;;;;;;;;;;;9.80;99.90;;;;;;4991207;28;19961;-44
2021/12/13 10:17:53;;;;;;;;;;;9.80;99.90;;;;;;5006037;28;19973;-44
2021/12/13 10:20:22;;;;;;;;;;;9.80;99.90;;;;;;4992186;28;19983;-46
2021/12/13 10:22:49;;;;;;;;;;;9.80;99.90;;;;;;5012467;28;19968;-44
2021/12/13 10:25:17;;;;;;;;;;;9.80;99.90;;;;;;5009011;28;20374;-45
2021/12/13 10:27:47;;;;;;;;;;;9.90;99.90;;;;;;4993878;28;20378;-43
2021/12/13 10:30:17;;;;;;;;;;;9.90;99.90;;;;;;4995422;28;19965;-44
2021/12/13 10:32:44;;;;;;;;;;;9.90;99.90;;;;;;4992911;28;20016;-46
2021/12/13 10:35:12;;;;;;;;;;;9.90;99.90;;;;;;5004898;28;19972;-45
2021/12/13 10:37:40;;;;;;;;;;;9.90;99.90;;;;;;4995366;28;20605;-47
2021/12/13 10:40:09;;;;;;;;;;;9.90;99.90;;;;;;5010983;28;20330;-44
2021/12/13 10:42:36;;;;;;;;;;;9.90;99.90;;;;;;4987872;28;19949;-45
2021/12/13 10:45:04;;;;;;;;;;;9.90;99.90;;;;;;5012720;28;19921;-44
2021/12/13 10:47:32;;;;;;;;;;;9.90;99.90;;;;;;4993203;28;20436;-44
2021/12/13 10:49:59;;;;;;;;;;;10.00;99.90;;;;;;4989056;28;19929;-42
2021/12/13 10:52:27;;;;;;;;;;;10.00;99.90;;;;;;5007697;28;19925;-43
2021/12/13 10:54:56;;;;;;;;;;;10.00;99.90;;;;;;4994008;28;19929;-46
2021/12/13 10:57:24;;;;;;;;;;;10.00;99.90;;;;;;4987726;28;19961;-45
2021/12/13 10:59:50;;;;;;;;;;;10.00;99.90;;;;;;5005448;28;20013;-43
2021/12/13 11:02:18;;;;;;;;;;;10.00;99.90;;;;;;5012787;28;20008;-47
2021/12/13 11:04:46;;;;;;;;;;;10.00;99.90;;;;;;4994689;28;20004;-44
2021/12/13 11:07:16;;;;;;;;;;;10.10;99.90;;;;;;5012228;28;20457;-46
2021/12/13 11:09:43;;;;;;;;;;;10.00;99.90;;;;;;4990617;28;19922;-45
2021/12/13 11:12:13;;;;;;;;;;;10.10;99.90;;;;;;4990352;28;20385;-46
2021/12/13 11:14:41;;;;;;;;;;;10.10;99.90;;;;;;4991488;28;20008;-43
2021/12/13 11:17:09;;;;;;;;;;;10.10;99.90;;;;;;5011890;28;19933;-44
2021/12/13 11:19:37;;;;;;;;;;;10.10;99.90;;;;;;4994167;28;20393;-43
2021/12/13 11:22:04;;;;;;;;;;;10.10;99.90;;;;;;4999316;28;19961;-44
2021/12/13 11:24:32;;;;;;;;;;;10.10;99.90;;;;;;4994625;28;19964;-46
2021/12/13 11:27:00;;;;;;;;;;;10.10;99.90;;;;;;5008181;28;19922;-43
2021/12/13 11:29:28;;;;;;;;;;;10.10;99.90;;;;;;4984745;28;19928;-45
2021/12/13 11:32:15;;;;;;;;;;;10.10;99.90;;;;;;4991030;28;19960;-44
2021/12/13 11:34:47;;;;;;;;;;;10.10;99.90;;;;;;5010640;28;20334;-44
2021/12/13 11:37:34;;;;;;;;;;;10.10;99.90;;;;;;5003059;28;19988;-44
2021/12/13 11:40:07;;;;;;;;;;;10.10;99.90;;;;;;4967257;28;19987;-45
2021/12/13 11:42:54;;;;;;;;;;;10.10;99.90;;;;;;4988764;28;19951;-43
2021/12/13 11:45:32;;;;;;;;;;;10.10;99.90;;;;;;5011409;28;19931;-44
2021/12/13 11:48:06;;;;;;;;;;;10.10;99.90;;;;;;5002716;28;19925;-43
2021/12/13 11:50:51;;;;;;;;;;;10.20;99.90;;;;;;5004863;28;19921;-43
2021/12/13 11:53:21;;;;;;;;;;;10.10;99.90;;;;;;4994494;28;20278;-44
2021/12/13 11:55:58;;;;;;;;;;;10.20;99.90;;;;;;4987620;28;20325;-44
2021/12/13 11:58:42;;;;;;;;;;;10.20;99.90;;;;;;4987397;28;19956;-43
2021/12/13 12:01:22;;;;;;;;;;;10.20;99.90;;;;;;5010981;28;19975;-43
2021/12/13 12:04:03;;;;;;;;;;;10.20;99.90;;;;;;5009072;28;19921;-44
2021/12/13 12:06:49;;;;;;;;;;;10.20;99.90;;;;;;5005899;28;19922;-44
2021/12/13 12:09:30;;;;;;;;;;;10.20;99.90;;;;;;5007939;28;19921;-44
2021/12/13 12:12:13;;;;;;;;;;;10.20;99.90;;;;;;5008357;28;19928;-43
2021/12/13 12:14:40;;;;;;;;;;;10.20;99.90;;;;;;4984445;28;19922;-45
2021/12/13 12:17:08;;;;;;;;;;;10.20;99.90;;;;;;4990786;28;19921;-43
2021/12/13 12:19:35;;;;;;;;;;;10.20;99.90;;;;;;4997744;28;19921;-43
2021/12/13 12:22:02;;;;;;;;;;;10.20;99.90;;;;;;5010677;28;20024;-42
2021/12/13 12:24:30;;;;;;;;;;;10.20;99.90;;;;;;5008682;28;19944;-46
2021/12/13 12:26:57;;;;;;;;;;;10.20;99.90;;;;;;5007764;28;19922;-45
2021/12/13 12:29:26;;;;;;;;;;;10.20;99.90;;;;;;4997848;28;19932;-40
2021/12/13 12:31:57;;;;;;;;;;;10.20;99.90;;;;;;5008489;28;19925;-45
2021/12/13 12:34:25;;;;;;;;;;;10.20;99.90;;;;;;5016090;28;19921;-44
2021/12/13 12:37:13;;;;;;;;;;;10.30;99.90;;;;;;4998429;28;19972;-44
2021/12/13 12:40:10;;;;;;;;;;;10.20;99.90;;;;;;4989330;28;19961;-43
2021/12/13 12:42:37;;;;;;;;;;;10.20;99.90;;;;;;4947830;29;19923;-43
2021/12/13 12:45:06;;;;;;;;;;;10.20;99.90;;;;;;4985044;28;19968;-44
2021/12/13 12:47:52;;;;;;;;;;;10.20;99.90;;;;;;5015479;28;20020;-41
2021/12/13 12:50:24;;;;;;;;;;;10.30;99.90;;;;;;5015248;28;20358;-41
2021/12/13 12:52:51;;;;;;;;;;;10.30;99.90;;;;;;4992304;28;20373;-42
2021/12/13 12:55:19;;;;;;;;;;;10.30;99.90;;;;;;4987521;28;19921;-43
2021/12/13 12:57:45;;;;;;;;;;;10.30;99.90;;;;;;5010592;28;19921;-43
2021/12/13 13:00:13;;;;;;;;;;;10.30;99.90;;;;;;4991131;28;20032;-41
2021/12/13 13:02:39;;;;;;;;;;;10.40;99.90;;;;;;5012095;28;19921;-43
2021/12/13 13:05:07;;;;;;;;;;;10.40;99.90;;;;;;4989650;28;20379;-44
2021/12/13 13:07:36;;;;;;;;;;;10.40;99.90;;;;;;5011883;28;19928;-41
2021/12/13 13:10:04;;;;;;;;;;;10.40;99.90;;;;;;5011998;28;19929;-42
2021/12/13 13:12:32;;;;;;;;;;;10.40;99.90;;;;;;4997774;28;19977;-42
2021/12/13 13:15:00;;;;;;;;;;;10.50;99.90;;;;;;4991468;28;19921;-43
2021/12/13 13:17:27;;;;;;;;;;;10.50;99.90;;;;;;4998104;28;19928;-42
2021/12/13 13:19:55;;;;;;;;;;;10.50;99.90;;;;;;4998319;28;20008;-42
2021/12/13 13:22:25;;;;;;;;;;;10.50;99.90;;;;;;4993697;28;19926;-44
2021/12/13 13:24:54;;;;;;;;;;;10.50;99.90;;;;;;4996390;28;19925;-43
2021/12/13 13:27:21;;;;;;;;;;;10.50;99.90;;;;;;5010960;28;19999;-42
2021/12/13 13:29:48;;;;;;;;;;;10.50;99.90;;;;;;5018371;28;20384;-41
2021/12/13 13:32:15;;;;;;;;;;;10.50;99.90;;;;;;4992648;28;19961;-41
2021/12/13 13:34:43;;;;;;;;;;;10.60;99.90;;;;;;5013792;28;19956;-43
2021/12/13 13:37:10;;;;;;;;;;;10.60;99.90;;;;;;5017422;28;20011;-41
2021/12/13 13:39:41;;;;;;;;;;;10.60;99.90;;;;;;5003199;28;19933;-42
2021/12/13 13:42:12;;;;;;;;;;;10.60;99.90;;;;;;4998450;28;19972;-42
2021/12/13 13:44:39;;;;;;;;;;;10.60;99.90;;;;;;5003533;28;19921;-42
2021/12/13 13:47:08;;;;;;;;;;;10.60;99.90;;;;;;5017310;28;19976;-42
2021/12/13 13:49:35;;;;;;;;;;;10.50;99.90;;;;;;5001971;28;19921;-41
2021/12/13 13:52:12;;;;;;;;;;;10.50;99.90;;;;;;4998355;28;19929;-41
2021/12/13 13:54:38;;;;;;;;;;;10.50;99.90;;;;;;4992077;28;19933;-40
2021/12/13 13:57:05;;;;;;;;;;;10.50;99.90;;;;;;5009998;28;20053;-44
2021/12/13 13:59:38;;;;;;;;;;;10.50;99.90;;;;;;4992957;28;19925;-44
2021/12/13 14:02:07;;;;;;;;;;;10.50;99.90;;;;;;4989951;28;19976;-42
2021/12/13 14:04:34;;;;;;;;;;;10.50;99.90;;;;;;4996354;28;19922;-41
2021/12/13 14:07:02;;;;;;;;;;;10.40;99.90;;;;;;5002475;28;19929;-42
2021/12/13 14:09:29;;;;;;;;;;;10.40;99.90;;;;;;5009120;28;20004;-42
2021/12/13 14:11:56;;;;;;;;;;;10.40;99.90;;;;;;5013822;28;19921;-42
2021/12/13 14:14:24;;;;;;;;;;;10.40;99.90;;;;;;4987166;28;19969;-41
2021/12/13 14:16:52;;;;;;;;;;;10.40;99.90;;;;;;5003553;28;20009;-41
2021/12/13 14:19:25;;;;;;;;;;;10.40;99.90;;;;;;5009571;28;19928;-43
2021/12/13 14:21:52;;;;;;;;;;;10.30;99.90;;;;;;5008343;28;19969;-42
2021/12/13 14:24:19;;;;;;;;;;;10.30;99.90;;;;;;4995854;28;20357;-42
2021/12/13 14:26:50;;;;;;;;;;;10.30;99.90;;;;;;5013913;28;19972;-42
2021/12/13 14:29:17;;;;;;;;;;;10.30;99.90;;;;;;4996644;28;19970;-42
2021/12/13 14:31:44;;;;;;;;;;;10.30;99.90;;;;;;5010951;28;20263;-42
2021/12/13 14:34:13;;;;;;;;;;;10.30;99.90;;;;;;4988206;28;19926;-41
2021/12/13 14:36:40;;;;;;;;;;;10.30;99.90;;;;;;5009538;28;20341;-42
2021/12/13 14:39:09;;;;;;;;;;;10.20;99.90;;;;;;4991264;28;19925;-42
2021/12/13 14:41:38;;;;;;;;;;;10.20;99.90;;;;;;4989754;28;20031;-42
2021/12/13 14:44:06;;;;;;;;;;;10.20;99.90;;;;;;4994048;28;19975;-41
2021/12/13 14:46:33;;;;;;;;;;;10.20;99.90;;;;;;4993448;28;20103;-42